sensor_id;sensor_type;location;lat;lon;timestamp;pressure;altitude;pressure_sealevel;temperature;humidity
26859;BME280;14429;48.346;16.338;2023-11-19T00:02:23;100282.44;;;14.66;44.89
26859;BME280;14429;48.346;16.338;2023-11-19T00:04:49;100289.53;;;14.67;44.68
26859;BME280;14429;48.346;16.338;2023-11-19T00:07:14;100286.97;;;14.65;44.91
26859;BME280;14429;48.346;16.338;2023-11-19T00:09:41;100287.94;;;14.64;44.80
26859;BME280;14429;48.346;16.338;2023-11-19T00:12:06;100277.31;;;14.63;44.75
26859;BME280;14429;48.346;16.338;2023-11-19T00:14:32;100269.25;;;14.63;44.90
26859;BME280;14429;48.346;16.338;2023-11-19T00:16:57;100260.47;;;14.61;45.11
26859;BME280;14429;48.346;16.338;2023-11-19T00:19:23;100262.41;;;14.59;44.99
26859;BME280;14429;48.346;16.338;2023-11-19T00:21:48;100264.16;;;14.60;44.94
26859;BME280;14429;48.346;16.338;2023-11-19T00:24:14;100262.41;;;14.59;44.96
26859;BME280;14429;48.346;16.338;2023-11-19T00:26:40;100263.25;;;14.59;44.95
26859;BME280;14429;48.346;16.338;2023-11-19T00:29:06;100255.13;;;14.61;44.91
26859;BME280;14429;48.346;16.338;2023-11-19T00:31:31;100258.78;;;14.60;44.94
26859;BME280;14429;48.346;16.338;2023-11-19T00:33:57;100267.78;;;14.59;44.99
26859;BME280;14429;48.346;16.338;2023-11-19T00:36:22;100259.84;;;14.57;44.92
26859;BME280;14429;48.346;16.338;2023-11-19T00:38:47;100251.66;;;14.59;44.95
26859;BME280;14429;48.346;16.338;2023-11-19T00:41:13;100236.41;;;14.59;45.03
26859;BME280;14429;48.346;16.338;2023-11-19T00:43:40;100231.94;;;14.60;45.04
26859;BME280;14429;48.346;16.338;2023-11-19T00:46:07;100235.56;;;14.59;44.85
26859;BME280;14429;48.346;16.338;2023-11-19T00:48:32;100253.25;;;13.57;46.71
26859;BME280;14429;48.346;16.338;2023-11-19T00:50:58;100252.84;;;12.51;45.15
26859;BME280;14429;48.346;16.338;2023-11-19T00:53:23;100267.97;;;12.90;47.74
26859;BME280;14429;48.346;16.338;2023-11-19T00:55:48;100245.25;;;13.20;48.19
26859;BME280;14429;48.346;16.338;2023-11-19T00:58:14;100242.41;;;13.58;47.36
26859;BME280;14429;48.346;16.338;2023-11-19T01:00:41;100225.81;;;13.89;46.83
26859;BME280;14429;48.346;16.338;2023-11-19T01:03:06;100234.13;;;14.09;46.27
26859;BME280;14429;48.346;16.338;2023-11-19T01:05:32;100233.03;;;12.79;44.38
26859;BME280;14429;48.346;16.338;2023-11-19T01:07:57;100234.41;;;13.81;46.97
26859;BME280;14429;48.346;16.338;2023-11-19T01:10:22;100217.81;;;14.12;46.33
26859;BME280;14429;48.346;16.338;2023-11-19T01:12:48;100212.63;;;14.21;45.79
26859;BME280;14429;48.346;16.338;2023-11-19T01:15:13;100213.47;;;14.22;45.83
26859;BME280;14429;48.346;16.338;2023-11-19T01:17:40;100210.41;;;13.80;46.77
26859;BME280;14429;48.346;16.338;2023-11-19T01:20:06;100206.84;;;14.15;45.97
26859;BME280;14429;48.346;16.338;2023-11-19T01:22:32;100201.97;;;14.09;44.85
26859;BME280;14429;48.346;16.338;2023-11-19T01:24:57;100197.72;;;14.17;45.96
26859;BME280;14429;48.346;16.338;2023-11-19T01:27:23;100196.06;;;14.27;45.64
26859;BME280;14429;48.346;16.338;2023-11-19T01:29:48;100195.50;;;14.34;45.67
26859;BME280;14429;48.346;16.338;2023-11-19T01:32:13;100202.34;;;14.38;45.45
26859;BME280;14429;48.346;16.338;2023-11-19T01:34:40;100197.69;;;14.40;45.46
26859;BME280;14429;48.346;16.338;2023-11-19T01:37:06;100193.91;;;13.73;44.68
26859;BME280;14429;48.346;16.338;2023-11-19T01:39:31;100193.25;;;14.28;45.69
26859;BME280;14429;48.346;16.338;2023-11-19T01:41:56;100195.25;;;14.37;45.48
26859;BME280;14429;48.346;16.338;2023-11-19T01:44:22;100187.81;;;14.41;45.43
26859;BME280;14429;48.346;16.338;2023-11-19T01:46:47;100176.97;;;14.42;45.36
26859;BME280;14429;48.346;16.338;2023-11-19T01:49:14;100187.59;;;14.44;45.34
26859;BME280;14429;48.346;16.338;2023-11-19T01:51:42;100170.63;;;14.43;45.35
26859;BME280;14429;48.346;16.338;2023-11-19T01:54:08;100175.88;;;14.45;45.11
26859;BME280;14429;48.346;16.338;2023-11-19T01:56:33;100175.16;;;14.43;45.31
26859;BME280;14429;48.346;16.338;2023-11-19T01:58:59;100176.84;;;14.44;45.32
26859;BME280;14429;48.346;16.338;2023-11-19T02:01:25;100179.66;;;14.42;45.36
26859;BME280;14429;48.346;16.338;2023-11-19T02:03:51;100172.59;;;14.41;45.37
26859;BME280;14429;48.346;16.338;2023-11-19T02:06:17;100169.66;;;14.44;45.34
26859;BME280;14429;48.346;16.338;2023-11-19T02:08:43;100156.22;;;14.44;45.13
26859;BME280;14429;48.346;16.338;2023-11-19T02:11:09;100158.81;;;14.46;45.33
26859;BME280;14429;48.346;16.338;2023-11-19T02:13:37;100143.78;;;14.43;45.32
26859;BME280;14429;48.346;16.338;2023-11-19T02:16:03;100139.28;;;14.44;45.18
26859;BME280;14429;48.346;16.338;2023-11-19T02:18:29;100124.03;;;14.44;45.24
26859;BME280;14429;48.346;16.338;2023-11-19T02:20:55;100120.41;;;14.45;45.24
26859;BME280;14429;48.346;16.338;2023-11-19T02:23:21;100102.56;;;14.44;45.25
26859;BME280;14429;48.346;16.338;2023-11-19T02:26:00;100108.91;;;14.43;45.34
26859;BME280;14429;48.346;16.338;2023-11-19T02:28:28;100102.56;;;14.44;45.38
26859;BME280;14429;48.346;16.338;2023-11-19T02:30:54;100085.63;;;14.44;45.36
26859;BME280;14429;48.346;16.338;2023-11-19T02:33:19;100096.56;;;14.41;45.37
26859;BME280;14429;48.346;16.338;2023-11-19T02:35:44;100094.03;;;14.39;45.39
26859;BME280;14429;48.346;16.338;2023-11-19T02:38:10;100098.41;;;14.40;45.35
26859;BME280;14429;48.346;16.338;2023-11-19T02:40:35;100091.13;;;14.42;45.41
26859;BME280;14429;48.346;16.338;2023-11-19T02:43:01;100083.06;;;14.42;45.15
26859;BME280;14429;48.346;16.338;2023-11-19T02:45:27;100084.75;;;14.43;45.33
26859;BME280;14429;48.346;16.338;2023-11-19T02:47:53;100078.56;;;14.43;45.32
26859;BME280;14429;48.346;16.338;2023-11-19T02:50:19;100086.47;;;14.44;45.37
26859;BME280;14429;48.346;16.338;2023-11-19T02:52:45;100076.84;;;14.42;45.34
26859;BME280;14429;48.346;16.338;2023-11-19T02:55:11;100072.34;;;14.42;45.39
26859;BME280;14429;48.346;16.338;2023-11-19T02:57:37;100062.69;;;14.40;45.45
26859;BME280;14429;48.346;16.338;2023-11-19T03:00:02;100070.63;;;14.41;45.41
26859;BME280;14429;48.346;16.338;2023-11-19T03:02:29;100068.91;;;14.40;45.41
26859;BME280;14429;48.346;16.338;2023-11-19T03:04:55;100051.09;;;14.39;45.58
26859;BME280;14429;48.346;16.338;2023-11-19T03:07:20;100044.13;;;14.37;45.33
26859;BME280;14429;48.346;16.338;2023-11-19T03:09:45;100036.97;;;14.37;45.50
26859;BME280;14429;48.346;16.338;2023-11-19T03:12:11;100037.81;;;14.38;45.60
26859;BME280;14429;48.346;16.338;2023-11-19T03:14:36;100033.31;;;14.38;45.47
26859;BME280;14429;48.346;16.338;2023-11-19T03:17:02;100023.56;;;14.37;45.48
26859;BME280;14429;48.346;16.338;2023-11-19T03:19:29;100011.84;;;14.38;45.48
26859;BME280;14429;48.346;16.338;2023-11-19T03:21:54;100017.22;;;14.38;45.50
26859;BME280;14429;48.346;16.338;2023-11-19T03:24:19;100019.13;;;14.36;45.55
26859;BME280;14429;48.346;16.338;2023-11-19T03:26:48;100023.53;;;14.27;45.81
26859;BME280;14429;48.346;16.338;2023-11-19T03:29:13;100016.44;;;14.04;46.22
26859;BME280;14429;48.346;16.338;2023-11-19T03:31:41;100020.09;;;14.25;45.87
26859;BME280;14429;48.346;16.338;2023-11-19T03:34:07;100020.59;;;14.29;45.81
26859;BME280;14429;48.346;16.338;2023-11-19T03:36:33;100021.34;;;14.31;45.80
26859;BME280;14429;48.346;16.338;2023-11-19T03:38:59;100014.81;;;13.68;45.80
26859;BME280;14429;48.346;16.338;2023-11-19T03:41:24;100004.50;;;14.19;46.13
26859;BME280;14429;48.346;16.338;2023-11-19T03:43:50;100016.72;;;14.23;46.10
26859;BME280;14429;48.346;16.338;2023-11-19T03:46:17;100015.97;;;13.07;44.19
26859;BME280;14429;48.346;16.338;2023-11-19T03:48:42;100005.38;;;13.85;46.98
26859;BME280;14429;48.346;16.338;2023-11-19T03:51:08;99992.00;;;13.85;47.05
26859;BME280;14429;48.346;16.338;2023-11-19T03:53:34;99983.72;;;11.52;48.45
26859;BME280;14429;48.346;16.338;2023-11-19T03:56:00;99979.41;;;12.60;50.01
26859;BME280;14429;48.346;16.338;2023-11-19T03:58:25;99981.09;;;12.01;51.61
26859;BME280;14429;48.346;16.338;2023-11-19T04:00:51;99973.13;;;12.96;48.68
26859;BME280;14429;48.346;16.338;2023-11-19T04:03:16;99970.63;;;12.58;47.94
26859;BME280;14429;48.346;16.338;2023-11-19T04:05:42;99966.88;;;12.72;47.82
26859;BME280;14429;48.346;16.338;2023-11-19T04:08:07;99963.38;;;13.52;48.21
26859;BME280;14429;48.346;16.338;2023-11-19T04:10:34;99957.13;;;13.18;45.23
26859;BME280;14429;48.346;16.338;2023-11-19T04:12:59;99940.00;;;13.20;48.37
26859;BME280;14429;48.346;16.338;2023-11-19T04:15:24;99944.25;;;12.89;49.44
26859;BME280;14429;48.346;16.338;2023-11-19T04:17:50;99945.75;;;13.26;48.62
26859;BME280;14429;48.346;16.338;2023-11-19T04:20:15;99947.22;;;13.64;47.64
26859;BME280;14429;48.346;16.338;2023-11-19T04:22:41;99934.19;;;13.81;47.35
26859;BME280;14429;48.346;16.338;2023-11-19T04:25:07;99945.72;;;13.94;47.04
26859;BME280;14429;48.346;16.338;2023-11-19T04:27:34;99941.59;;;14.01;46.78
26859;BME280;14429;48.346;16.338;2023-11-19T04:29:59;99928.66;;;14.06;46.71
26859;BME280;14429;48.346;16.338;2023-11-19T04:32:24;99923.06;;;14.09;46.53
26859;BME280;14429;48.346;16.338;2023-11-19T04:34:50;99919.41;;;14.10;46.54
26859;BME280;14429;48.346;16.338;2023-11-19T04:37:15;99918.19;;;14.14;46.30
26859;BME280;14429;48.346;16.338;2023-11-19T04:39:41;99921.59;;;14.16;46.32
26859;BME280;14429;48.346;16.338;2023-11-19T04:42:06;99916.97;;;14.18;46.35
26859;BME280;14429;48.346;16.338;2023-11-19T04:44:33;99916.72;;;14.21;46.16
26859;BME280;14429;48.346;16.338;2023-11-19T04:46:58;99922.09;;;14.21;46.34
26859;BME280;14429;48.346;16.338;2023-11-19T04:49:24;99914.03;;;14.21;46.43
26859;BME280;14429;48.346;16.338;2023-11-19T04:51:49;99903.31;;;14.21;46.20
26859;BME280;14429;48.346;16.338;2023-11-19T04:54:15;99897.81;;;14.22;46.24
26859;BME280;14429;48.346;16.338;2023-11-19T04:56:40;99887.97;;;14.23;46.37
26859;BME280;14429;48.346;16.338;2023-11-19T04:59:06;99890.13;;;14.18;46.22
26859;BME280;14429;48.346;16.338;2023-11-19T05:01:33;99873.81;;;14.21;46.30
26859;BME280;14429;48.346;16.338;2023-11-19T05:03:58;99873.56;;;14.24;46.23
26859;BME280;14429;48.346;16.338;2023-11-19T05:06:26;99865.06;;;13.97;46.71
26859;BME280;14429;48.346;16.338;2023-11-19T05:08:51;99873.34;;;14.05;46.78
26859;BME280;14429;48.346;16.338;2023-11-19T05:11:16;99876.03;;;13.94;46.49
26859;BME280;14429;48.346;16.338;2023-11-19T05:13:42;99881.47;;;13.26;46.56
26859;BME280;14429;48.346;16.338;2023-11-19T05:16:07;99877.06;;;11.98;48.09
26859;BME280;14429;48.346;16.338;2023-11-19T05:18:34;99869.47;;;11.06;50.49
26859;BME280;14429;48.346;16.338;2023-11-19T05:20:59;99874.34;;;11.75;49.32
26859;BME280;14429;48.346;16.338;2023-11-19T05:23:25;99865.78;;;11.82;52.47
26859;BME280;14429;48.346;16.338;2023-11-19T05:25:50;99864.78;;;10.71;51.55
26859;BME280;14429;48.346;16.338;2023-11-19T05:28:16;99868.88;;;11.88;51.85
26859;BME280;14429;48.346;16.338;2023-11-19T05:30:41;99864.75;;;10.33;52.42
26859;BME280;14429;48.346;16.338;2023-11-19T05:33:06;99854.88;;;11.36;50.62
26859;BME280;14429;48.346;16.338;2023-11-19T05:35:34;99850.19;;;11.64;51.36
26859;BME280;14429;48.346;16.338;2023-11-19T05:37:59;99835.22;;;11.61;52.55
26859;BME280;14429;48.346;16.338;2023-11-19T05:40:25;99840.31;;;10.52;53.24
26859;BME280;14429;48.346;16.338;2023-11-19T05:42:50;99832.41;;;10.89;51.34
26859;BME280;14429;48.346;16.338;2023-11-19T05:45:15;99830.94;;;11.22;51.80
26859;BME280;14429;48.346;16.338;2023-11-19T05:47:41;99838.78;;;9.69;55.46
26859;BME280;14429;48.346;16.338;2023-11-19T05:50:07;99823.16;;;10.56;56.62
26859;BME280;14429;48.346;16.338;2023-11-19T05:52:34;99817.97;;;10.41;54.00
26859;BME280;14429;48.346;16.338;2023-11-19T05:55:00;99807.13;;;10.44;53.09
26859;BME280;14429;48.346;16.338;2023-11-19T05:57:25;99816.38;;;12.00;52.92
26859;BME280;14429;48.346;16.338;2023-11-19T05:59:51;99817.31;;;12.57;51.53
26859;BME280;14429;48.346;16.338;2023-11-19T06:02:16;99811.50;;;12.86;50.41
26859;BME280;14429;48.346;16.338;2023-11-19T06:04:41;99817.06;;;13.17;49.70
26859;BME280;14429;48.346;16.338;2023-11-19T06:07:07;99810.06;;;13.38;49.04
26859;BME280;14429;48.346;16.338;2023-11-19T06:09:34;99812.19;;;13.11;49.41
26859;BME280;14429;48.346;16.338;2023-11-19T06:11:59;99813.50;;;13.06;49.87
26859;BME280;14429;48.346;16.338;2023-11-19T06:14:24;99821.34;;;13.20;48.70
26859;BME280;14429;48.346;16.338;2023-11-19T06:16:50;99817.13;;;13.60;48.23
26859;BME280;14429;48.346;16.338;2023-11-19T06:19:15;99826.06;;;13.16;46.51
26859;BME280;14429;48.346;16.338;2023-11-19T06:21:41;99824.31;;;13.49;48.67
26859;BME280;14429;48.346;16.338;2023-11-19T06:24:06;99823.22;;;12.96;49.50
26859;BME280;14429;48.346;16.338;2023-11-19T06:26:33;99825.34;;;11.99;50.38
26859;BME280;14429;48.346;16.338;2023-11-19T06:28:59;99831.94;;;12.06;52.44
26859;BME280;14429;48.346;16.338;2023-11-19T06:31:24;99829.34;;;10.95;53.53
26859;BME280;14429;48.346;16.338;2023-11-19T06:33:50;99829.25;;;11.70;53.50
26859;BME280;14429;48.346;16.338;2023-11-19T06:36:15;99833.13;;;11.42;51.33
26859;BME280;14429;48.346;16.338;2023-11-19T06:38:40;99826.09;;;12.01;49.26
26859;BME280;14429;48.346;16.338;2023-11-19T06:41:07;99822.22;;;12.40;50.75
26859;BME280;14429;48.346;16.338;2023-11-19T06:43:34;99827.69;;;11.43;53.72
26859;BME280;14429;48.346;16.338;2023-11-19T06:46:00;99810.94;;;11.89;52.58
26859;BME280;14429;48.346;16.338;2023-11-19T06:48:25;99807.16;;;12.04;52.91
26859;BME280;14429;48.346;16.338;2023-11-19T06:50:50;99800.00;;;12.27;51.18
26859;BME280;14429;48.346;16.338;2023-11-19T06:53:16;99804.63;;;11.90;53.13
26859;BME280;14429;48.346;16.338;2023-11-19T06:55:41;99789.03;;;11.96;51.39
26859;BME280;14429;48.346;16.338;2023-11-19T06:58:07;99788.69;;;12.24;51.69
26859;BME280;14429;48.346;16.338;2023-11-19T07:00:34;99792.75;;;12.29;52.09
26859;BME280;14429;48.346;16.338;2023-11-19T07:02:59;99799.13;;;12.96;50.37
26859;BME280;14429;48.346;16.338;2023-11-19T07:05:24;99786.31;;;13.33;49.28
26859;BME280;14429;48.346;16.338;2023-11-19T07:07:50;99770.81;;;12.70;50.66
26859;BME280;14429;48.346;16.338;2023-11-19T07:10:15;99756.00;;;13.22;49.50
26859;BME280;14429;48.346;16.338;2023-11-19T07:12:41;99765.25;;;12.84;47.68
26859;BME280;14429;48.346;16.338;2023-11-19T07:15:07;99758.28;;;13.16;49.58
26859;BME280;14429;48.346;16.338;2023-11-19T07:17:33;99745.88;;;13.15;49.62
26859;BME280;14429;48.346;16.338;2023-11-19T07:19:59;99737.22;;;13.54;48.58
26859;BME280;14429;48.346;16.338;2023-11-19T07:22:24;99736.16;;;13.57;48.60
26859;BME280;14429;48.346;16.338;2023-11-19T07:24:50;99744.28;;;13.77;48.07
26859;BME280;14429;48.346;16.338;2023-11-19T07:27:15;99737.84;;;13.47;48.49
26859;BME280;14429;48.346;16.338;2023-11-19T07:29:43;99736.38;;;13.32;49.27
26859;BME280;14429;48.346;16.338;2023-11-19T07:32:08;99732.47;;;13.69;48.17
26859;BME280;14429;48.346;16.338;2023-11-19T07:34:35;99742.50;;;13.56;48.42
26859;BME280;14429;48.346;16.338;2023-11-19T07:37:00;99742.81;;;12.64;49.38
26859;BME280;14429;48.346;16.338;2023-11-19T07:39:26;99741.50;;;13.57;48.29
26859;BME280;14429;48.346;16.338;2023-11-19T07:41:51;99748.31;;;13.61;48.36
26859;BME280;14429;48.346;16.338;2023-11-19T07:44:17;99739.75;;;12.91;49.41
26859;BME280;14429;48.346;16.338;2023-11-19T07:46:42;99735.06;;;13.59;48.45
26859;BME280;14429;48.346;16.338;2023-11-19T07:49:07;99733.00;;;13.30;48.42
26859;BME280;14429;48.346;16.338;2023-11-19T07:51:34;99728.50;;;13.52;48.66
26859;BME280;14429;48.346;16.338;2023-11-19T07:54:00;99727.78;;;12.73;47.97
26859;BME280;14429;48.346;16.338;2023-11-19T07:56:25;99730.31;;;13.20;49.53
26859;BME280;14429;48.346;16.338;2023-11-19T07:58:50;99733.94;;;13.62;48.41
26859;BME280;14429;48.346;16.338;2023-11-19T08:01:16;99734.41;;;13.77;48.13
26859;BME280;14429;48.346;16.338;2023-11-19T08:03:41;99720.13;;;12.80;48.30
26859;BME280;14429;48.346;16.338;2023-11-19T08:06:07;99728.09;;;13.14;49.09
26859;BME280;14429;48.346;16.338;2023-11-19T08:08:34;99718.63;;;13.53;48.67
26859;BME280;14429;48.346;16.338;2023-11-19T08:11:00;99733.06;;;12.96;49.95
26859;BME280;14429;48.346;16.338;2023-11-19T08:13:25;99723.13;;;13.42;49.11
26859;BME280;14429;48.346;16.338;2023-11-19T08:15:51;99729.56;;;13.72;48.42
26859;BME280;14429;48.346;16.338;2023-11-19T08:18:16;99718.50;;;12.66;49.17
26859;BME280;14429;48.346;16.338;2023-11-19T08:20:42;99712.53;;;13.40;49.06
26859;BME280;14429;48.346;16.338;2023-11-19T08:23:07;99725.91;;;13.73;48.18
26859;BME280;14429;48.346;16.338;2023-11-19T08:25:34;99720.44;;;13.42;48.69
26859;BME280;14429;48.346;16.338;2023-11-19T08:27:59;99716.91;;;13.09;48.33
26859;BME280;14429;48.346;16.338;2023-11-19T08:30:25;99714.19;;;13.63;48.52
26859;BME280;14429;48.346;16.338;2023-11-19T08:32:50;99709.34;;;13.57;48.60
26859;BME280;14429;48.346;16.338;2023-11-19T08:35:16;99706.78;;;13.66;48.34
26859;BME280;14429;48.346;16.338;2023-11-19T08:37:41;99705.00;;;13.34;49.35
26859;BME280;14429;48.346;16.338;2023-11-19T08:40:07;99709.34;;;13.68;48.40
26859;BME280;14429;48.346;16.338;2023-11-19T08:42:34;99705.97;;;13.12;49.87
26859;BME280;14429;48.346;16.338;2023-11-19T08:45:00;99702.66;;;13.51;48.89
26859;BME280;14429;48.346;16.338;2023-11-19T08:47:25;99709.34;;;13.03;50.03
26859;BME280;14429;48.346;16.338;2023-11-19T08:49:50;99705.00;;;13.23;49.39
26859;BME280;14429;48.346;16.338;2023-11-19T08:52:16;99715.06;;;13.09;50.10
26859;BME280;14429;48.346;16.338;2023-11-19T08:54:42;99721.91;;;13.24;49.66
26859;BME280;14429;48.346;16.338;2023-11-19T08:57:07;99718.63;;;13.42;49.21
26859;BME280;14429;48.346;16.338;2023-11-19T08:59:34;99724.78;;;12.89;49.38
26859;BME280;14429;48.346;16.338;2023-11-19T09:02:00;99726.41;;;13.67;48.60
26859;BME280;14429;48.346;16.338;2023-11-19T09:04:25;99717.16;;;13.49;49.02
26859;BME280;14429;48.346;16.338;2023-11-19T09:06:50;99697.88;;;13.76;48.35
26859;BME280;14429;48.346;16.338;2023-11-19T09:09:16;99695.88;;;12.60;51.60
26859;BME280;14429;48.346;16.338;2023-11-19T09:11:41;99692.59;;;13.22;49.71
26859;BME280;14429;48.346;16.338;2023-11-19T09:14:07;99673.22;;;13.08;50.17
26859;BME280;14429;48.346;16.338;2023-11-19T09:16:33;99684.38;;;12.92;49.94
26859;BME280;14429;48.346;16.338;2023-11-19T09:18:59;99678.66;;;12.74;51.46
26859;BME280;14429;48.346;16.338;2023-11-19T09:21:25;99691.16;;;12.29;51.55
26859;BME280;14429;48.346;16.338;2023-11-19T09:23:50;99683.03;;;12.75;51.31
26859;BME280;14429;48.346;16.338;2023-11-19T09:26:16;99670.19;;;13.13;50.21
26859;BME280;14429;48.346;16.338;2023-11-19T09:28:41;99666.50;;;12.92;50.97
26859;BME280;14429;48.346;16.338;2023-11-19T09:31:13;99680.38;;;13.40;49.67
26859;BME280;14429;48.346;16.338;2023-11-19T09:33:40;99671.47;;;13.61;48.83
26859;BME280;14429;48.346;16.338;2023-11-19T09:36:06;99660.88;;;13.60;48.91
26859;BME280;14429;48.346;16.338;2023-11-19T09:38:31;99668.63;;;13.73;48.59
26859;BME280;14429;48.346;16.338;2023-11-19T09:40:58;99664.59;;;13.16;49.97
26859;BME280;14429;48.346;16.338;2023-11-19T09:43:24;99666.22;;;13.71;48.58
26859;BME280;14429;48.346;16.338;2023-11-19T09:45:50;99668.34;;;13.02;49.85
26859;BME280;14429;48.346;16.338;2023-11-19T09:48:16;99646.31;;;13.42;49.47
26859;BME280;14429;48.346;16.338;2023-11-19T09:50:44;99653.34;;;13.54;48.96
26859;BME280;14429;48.346;16.338;2023-11-19T09:53:09;99652.09;;;13.58;48.80
26859;BME280;14429;48.346;16.338;2023-11-19T09:55:35;99644.06;;;13.58;48.99
26859;BME280;14429;48.346;16.338;2023-11-19T09:58:01;99636.63;;;13.61;48.94
26859;BME280;14429;48.346;16.338;2023-11-19T10:00:27;99646.28;;;13.64;48.85
26859;BME280;14429;48.346;16.338;2023-11-19T10:02:54;99654.63;;;13.70;48.81
26859;BME280;14429;48.346;16.338;2023-11-19T10:05:21;99644.38;;;12.79;50.45
26859;BME280;14429;48.346;16.338;2023-11-19T10:07:50;99631.84;;;13.75;48.54
26859;BME280;14429;48.346;16.338;2023-11-19T10:10:15;99628.81;;;13.69;48.65
26859;BME280;14429;48.346;16.338;2023-11-19T10:12:41;99624.31;;;13.70;48.77
26859;BME280;14429;48.346;16.338;2023-11-19T10:15:16;99623.88;;;13.54;49.07
26859;BME280;14429;48.346;16.338;2023-11-19T10:17:42;99618.84;;;13.71;48.91
26859;BME280;14429;48.346;16.338;2023-11-19T10:20:09;99619.56;;;12.99;51.03
26859;BME280;14429;48.346;16.338;2023-11-19T10:22:36;99624.44;;;13.68;48.93
26859;BME280;14429;48.346;16.338;2023-11-19T10:25:04;99611.09;;;13.47;49.54
26859;BME280;14429;48.346;16.338;2023-11-19T10:27:29;99603.38;;;13.74;48.77
26859;BME280;14429;48.346;16.338;2023-11-19T10:29:59;99605.09;;;13.65;49.24
26859;BME280;14429;48.346;16.338;2023-11-19T10:32:25;99600.47;;;13.67;48.98
26859;BME280;14429;48.346;16.338;2023-11-19T10:34:50;99600.78;;;13.31;49.63
26859;BME280;14429;48.346;16.338;2023-11-19T10:37:27;99593.41;;;13.55;49.32
26859;BME280;14429;48.346;16.338;2023-11-19T10:39:53;99579.25;;;13.74;48.72
26859;BME280;14429;48.346;16.338;2023-11-19T10:42:20;99580.66;;;13.89;48.32
26859;BME280;14429;48.346;16.338;2023-11-19T10:44:46;99572.25;;;13.83;48.54
26859;BME280;14429;48.346;16.338;2023-11-19T10:47:14;99573.09;;;13.83;48.40
26859;BME280;14429;48.346;16.338;2023-11-19T10:49:39;99568.19;;;13.99;48.09
26859;BME280;14429;48.346;16.338;2023-11-19T10:52:05;99563.06;;;13.96;48.21
26859;BME280;14429;48.346;16.338;2023-11-19T10:54:31;99559.69;;;13.94;48.17
26859;BME280;14429;48.346;16.338;2023-11-19T10:56:59;99557.81;;;14.05;48.17
26859;BME280;14429;48.346;16.338;2023-11-19T10:59:28;99557.13;;;13.93;48.41
26859;BME280;14429;48.346;16.338;2023-11-19T11:01:56;99561.44;;;13.73;48.84
26859;BME280;14429;48.346;16.338;2023-11-19T11:04:23;99550.13;;;12.87;52.82
26859;BME280;14429;48.346;16.338;2023-11-19T11:06:49;99541.72;;;13.74;48.85
26859;BME280;14429;48.346;16.338;2023-11-19T11:09:16;99535.88;;;13.70;48.96
26859;BME280;14429;48.346;16.338;2023-11-19T11:11:46;99545.81;;;12.30;54.70
26859;BME280;14429;48.346;16.338;2023-11-19T11:14:13;99541.72;;;12.91;51.57
26859;BME280;14429;48.346;16.338;2023-11-19T11:16:42;99540.75;;;12.60;53.17
26859;BME280;14429;48.346;16.338;2023-11-19T11:19:08;99535.63;;;13.00;51.31
26859;BME280;14429;48.346;16.338;2023-11-19T11:21:35;99553.03;;;13.47;49.93
26859;BME280;14429;48.346;16.338;2023-11-19T11:24:20;99542.19;;;12.64;53.85
26859;BME280;14429;48.346;16.338;2023-11-19T11:27:02;99547.78;;;13.04;51.19
26859;BME280;14429;48.346;16.338;2023-11-19T11:29:36;99546.56;;;13.49;49.77
26859;BME280;14429;48.346;16.338;2023-11-19T11:32:11;99544.69;;;13.61;49.51
26859;BME280;14429;48.346;16.338;2023-11-19T11:34:52;99538.06;;;13.75;49.04
26859;BME280;14429;48.346;16.338;2023-11-19T11:37:26;99542.88;;;13.81;48.73
26859;BME280;14429;48.346;16.338;2023-11-19T11:39:57;99531.00;;;12.91;53.50
26859;BME280;14429;48.346;16.338;2023-11-19T11:42:35;99538.06;;;12.70;53.37
26859;BME280;14429;48.346;16.338;2023-11-19T11:45:01;99538.53;;;12.65;53.16
26859;BME280;14429;48.346;16.338;2023-11-19T11:50:55;99544.81;;;13.18;50.99
26859;BME280;14429;48.346;16.338;2023-11-19T11:53:22;99538.16;;;12.15;56.25
26859;BME280;14429;48.346;16.338;2023-11-19T11:55:55;99537.81;;;12.95;51.79
26859;BME280;14429;48.346;16.338;2023-11-19T11:58:22;99537.19;;;13.13;51.37
26859;BME280;14429;48.346;16.338;2023-11-19T12:00:51;99541.38;;;13.37;50.49
26859;BME280;14429;48.346;16.338;2023-11-19T12:03:20;99535.88;;;13.08;51.80
26859;BME280;14429;48.346;16.338;2023-11-19T12:05:47;99531.56;;;13.16;51.83
26859;BME280;14429;48.346;16.338;2023-11-19T12:08:13;99539.53;;;12.64;55.94
26859;BME280;14429;48.346;16.338;2023-11-19T12:10:44;99524.97;;;12.78;54.08
26859;BME280;14429;48.346;16.338;2023-11-19T12:13:10;99521.38;;;11.68;60.00
26859;BME280;14429;48.346;16.338;2023-11-19T12:16:09;99523.97;;;12.79;52.52
26859;BME280;14429;48.346;16.338;2023-11-19T12:18:35;99515.56;;;13.36;50.73
26859;BME280;14429;48.346;16.338;2023-11-19T12:21:01;99504.31;;;13.53;50.28
26859;BME280;14429;48.346;16.338;2023-11-19T12:23:29;99506.94;;;13.64;49.69
26859;BME280;14429;48.346;16.338;2023-11-19T12:25:54;99512.25;;;13.74;49.54
26859;BME280;14429;48.346;16.338;2023-11-19T12:28:20;99507.97;;;13.52;50.29
26859;BME280;14429;48.346;16.338;2023-11-19T12:30:45;99502.25;;;13.76;49.43
26859;BME280;14429;48.346;16.338;2023-11-19T12:33:12;99498.13;;;13.73;49.48
26859;BME280;14429;48.346;16.338;2023-11-19T12:35:38;99497.81;;;13.86;49.09
26859;BME280;14429;48.346;16.338;2023-11-19T12:38:04;99491.56;;;13.66;50.17
26859;BME280;14429;48.346;16.338;2023-11-19T12:40:29;99486.41;;;13.73;49.55
26859;BME280;14429;48.346;16.338;2023-11-19T12:42:55;99486.09;;;13.87;48.96
26859;BME280;14429;48.346;16.338;2023-11-19T12:45:21;99481.09;;;13.94;48.89
26859;BME280;14429;48.346;16.338;2023-11-19T12:47:47;99475.50;;;13.97;48.75